Terminal Aerodrome Forecast
Issued by NWS

Home | Current Version | Previous Version | Text Only | Print | Product List | Glossary On
Versions: 1 2 3 4 5 6 7 8 9 10 11 12 13 14 15 16
000
FTUS46 KSEW 231120
TAFPAE
TAF
KPAE 231120Z 2312/2412 15008KT P6SM SCT035 BKN050
     FM231400 14011G18KT P6SM -RA SCT030 OVC040
     FM232200 16015G25KT P6SM -RA SCT020 OVC030
     FM240200 16015G25KT 6SM -RA BR SCT010 OVC020
     FM240600 16015G23KT 6SM -RA BR OVC010=

USA.gov is the U.S. government's official web portal to all federal, state and local government web resources and services.